Gilman, IA (50106)

4:10 PM CDT on July 13, 2014 (GMT -0500)
Grinnell Weather.com (KRIAGRIN2) Elev 1014 ft | 41.75 °N, 92.70 °W | Change Station

Current weather conditions updated 7 seconds ago

Overcast
Overcast
73.6 °F
Feels Like 73 °F
N
6.2
Wind Variable Wind from WSW
Gusts 9.2 mph

Tomorrow is forecast to be Much Cooler than today.

Today
High -- | Low -- °F
--% Chance of Precip.
Yesterday
High -- | Low -- °F
Precip. -- in
5:47 AM 8:45 PM
Full, 97% visible
Pressure 29.97 in
Visibility 10.0 miles
Clouds Mostly Cloudy 4500 ft
Mostly Cloudy 5500 ft
Overcast 6500 ft
Heat Index 73 °F
Dew Point 69 °F
Humidity 85%
Rainfall 0.04 in
Snow Depth Not available.
UV 0.7 out of 12
Pollen 3.10 out of 12
Air Quality Not available.
Flu Activity Sporadic
METAR KGGI 132055Z AUTO 35005KT 10SM BKN045 BKN055 OVC065 25/18 A2997 RMK AO2 T02450184

More Conditions Fewer Conditions

Pressure 29.97 in
Visibility 10.0 miles
Clouds Mostly Cloudy 4500 ft
Mostly Cloudy 5500 ft
Overcast 6500 ft
Heat Index 73 °F
Dew Point 69 °F
Humidity 85%
Rainfall 0.04 in
Snow Depth Not available.
UV 0.7 out of 12
Pollen 3.10 out of 12
Air Quality Not available.
Flu Activity Sporadic
METAR KGGI 132055Z AUTO 35005KT 10SM BKN045 BKN055 OVC065 25/18 A2997 RMK AO2 T02450184

More Conditions Fewer Conditions

10-Day Weather Forecast

Almanac

Astronomy

Jul. 13, 2014 Rise Set
Actual Time 5:47 AM CDT 8:45 PM CDT
Civil Twilight 5:14 AM CDT 9:19 PM CDT
Nautical Twilight 4:31 AM CDT 10:01 PM CDT
Astronomical Twilight 3:42 AM CDT 10:51 PM CDT
Moon 9:31 PM CDT 7:20 AM CDT
Length of Visible Light 16h 04m
Length of Day
14h 58m
Tomorrow will be 1m 22s shorter.
Full, 97% of the Moon is Illuminated
Today
Full
Jul 18
Last Quarter
Jul 26
New
Aug 3
First Quarter
Aug 10
Full

Today's Extremes

State Highs State Lows

Community

WunderPhotos

Upload Photos

1,733,394 photos uploaded!

Nearby

Snow Depth

Station Depth Elevation
No new snow has been reported.

Earthquake Activity

City Distance Mag. Time & Date
No recent earthquake activity has been reported nearby.
Minimum magnitude displayed is 2.5.

Coastal Water Temperatures

Place Temperature
No Stations Reporting

Nearby Weather Stations

Station Location Temp. Heat Index Dew Point Humidity Wind Precip. Elev Updated Type
Grinnell Weather.com, Grinnell, IA 73.6 °F 73 °F 69 °F 85% WSW  at  6.2 mph 0.04 in / hr 1014 ft 4:10 PM CDT Rapid Fire
MesoWest LAMOI1 , Marshalltown, IA 82 °F 80 °F - - North  at  - 0.00 in / hr 937 ft 2:40 PM CDT MADIS
Newton, IA 71.4 °F 72 °F 65 °F 81% NW  at  0.0 mph 0.00 in / hr 943 ft 4:10 PM CDT Normal
Anderson Farms, Beaman, IA 82.6 °F 85 °F 65 °F 56% WNW  at  4.0 mph 0.00 in / hr 1043 ft 4:09 PM CDT Normal
KB0MGH, Gladbrook, IA 87.8 °F 89 °F 64 °F 45% West  at  1.9 mph 0.00 in / hr 1010 ft 4:10 PM CDT Rapid Fire

Show More Stations Show Fewer Stations